General Aviation Weather

Text Reports

Enter one or more of the following location identifiers separated by a space:

Zip Code, Four-Character ICAO or Three-Character IATA airport codes.

METAR - Aviation Routine Weather Report
KVTI - Vinton, Iowa
Updated at 5:15 PM GMT on March 02, 2015 (11:15 AM CST):
METAR KVTI 021715Z AUTO 00000KT 10SM CLR M06/M12 A3051 RMK AO2 T10611119
TAF - Terminal Area Forecast
KVTI - Vinton, Iowa
Updated at 5:15 PM GMT on March 02, 2015 (11:15 AM CST):
No TAF is currently available for this location.
Decoded:
No decoded TAF is available.
PIREP - Pilot Weather Report
KVTI - Vinton, Iowa
Updated at 5:15 PM GMT on March 02, 2015 (11:15 AM CST):
No PIREP is currently available for this location.
AIRMET - Airmens Meteorological Information
KVTI - Vinton, Iowa
Updated at 5:15 PM GMT on March 02, 2015 (11:15 AM CST):
No AIRMET is currently available for this location.
SIGMET - Significant Meteorological Information
KVTI - Vinton, Iowa
Updated at 5:15 PM GMT on March 02, 2015 (11:15 AM CST):
No SIGMET is currently available for this location.
NOTAM - Notice to Airmen
KVTI - Vinton, Iowa
Updated at 5:15 PM GMT on March 02, 2015 (11:15 AM CST):
No NOTAM is currently available for this location.
Forecast Area
KVTI - Vinton, Iowa
Updated at 5:15 PM GMT on March 02, 2015 (11:15 AM CST):
No NOTAM is currently available for this location.
Aviation Weather Maps